首页
METAR-TAF:

METAR-TAF

机场 :

格拉斯哥机场

格拉斯哥, 苏格兰

纬度: 55-52N, 经度: 004-26W, 海拔: 8米

当前天气观测

该预报发布于25分钟前的22:20 UTC
风速5节,风向东南
温度 3°C
湿度 93%
气压 1031 hPa
能見度: 6000
阴天层高于800英尺

METAR: EGPF 022220Z AUTO 13005KT 6000 OVC008 03/02 Q1031

时间: 22:45 (22:45 UTC)

预报

该预报发布于5小时和48分钟前的16:57 UTC
预报有效从02日的 18点(UTC)到 03日的 18点(UTC)
风速4节,风向
能见度10公里或以上
散云层高于1500英尺
成为
从 02日的 18点(UTC)到 02日的 21点(UTC)
多云层高于1000英尺
短暂存在
从 02日的 18点(UTC)到 03日的 12点(UTC)
能見度: 3000
多云层高于600英尺
轻雾
几率 30% :
短暂存在
从 02日的 20点(UTC)到 03日的 09点(UTC)
能見度: 0300
阴天层高于100英尺
成为
从 03日的 12点(UTC)到 03日的 15点(UTC)
多云层高于1500英尺
几率 40% :
短暂存在
从 03日的 12点(UTC)到 03日的 18点(UTC)
能見度: 7000

TAF: EGPF 021657Z 0218/0318 09004KT 9999 SCT015 BECMG 0218/0221 BKN010 TEMPO 0218/0312 3000 BR BKN006 PROB30 TEMPO 0220/0309 0300 FG OVC001 BECMG 0312/0315 BKN015 PROB40 TEMPO 0312/0318 7000

超过4000个机场的气象观测和天气预报(METAR&TAF报告)。

可查询的气象台以黄色和红色小点在地图上表示。

将鼠标移到小点上方,可查看气象台名称。

然后点击查看天气观测和预报。

如需切换地图:点击带黑十字的绿色按钮放大地图;点击带横线的绿色按钮缩小地图;或者点击绿色箭头查看邻近地区的地图。


METAR-TAF: